Time;durP1;ratioP1;P1;durP2;ratioP2;P2;SDS_P1;SDS_P2;PMS_P1;PMS_P2;Temp;Humidity;BMP_temperature;BMP_pressure;BME280_temperature;BME280_humidity;BME280_pressure;Samples;Min_cycle;Max_cycle;Signal;HPM_P1;HPM_P2
2021/06/03 00:02:23;;;;;;;10.45;9.35;;;;;;;;;;5013762;28;20056;-63
2021/06/03 00:05:09;;;;;;;15.10;10.25;;;;;;;;;;5013858;28;20046;-62
2021/06/03 00:07:55;;;;;;;12.50;10.35;;;;;;;;;;5012857;28;20562;-62
2021/06/03 00:10:41;;;;;;;12.93;10.63;;;;;;;;;;5013608;28;20042;-62
2021/06/03 00:13:27;;;;;;;14.38;10.98;;;;;;;;;;5013673;28;20045;-62
2021/06/03 00:16:13;;;;;;;14.50;10.93;;;;;;;;;;5013939;28;20173;-62
2021/06/03 00:18:59;;;;;;;14.90;10.02;;;;;;;;;;5013923;28;20046;-62
2021/06/03 00:21:45;;;;;;;11.90;10.10;;;;;;;;;;5013308;28;20050;-62
2021/06/03 00:24:31;;;;;;;11.35;10.02;;;;;;;;;;5013777;28;20049;-63
2021/06/03 00:27:16;;;;;;;11.35;9.88;;;;;;;;;;5013450;28;20515;-63
2021/06/03 00:30:02;;;;;;;12.20;9.50;;;;;;;;;;5013281;28;20424;-62
2021/06/03 00:32:49;;;;;;;15.85;10.48;;;;;;;;;;5013400;28;20048;-62
2021/06/03 00:35:34;;;;;;;10.32;9.10;;;;;;;;;;5013148;28;20507;-63
2021/06/03 00:38:20;;;;;;;12.48;10.27;;;;;;;;;;5013325;28;20042;-62
2021/06/03 00:41:05;;;;;;;14.30;10.10;;;;;;;;;;5013401;28;20049;-62
2021/06/03 00:43:50;;;;;;;13.23;10.55;;;;;;;;;;5013273;28;20053;-62
2021/06/03 00:46:36;;;;;;;11.27;10.18;;;;;;;;;;5013179;28;20056;-62
2021/06/03 00:49:21;;;;;;;11.32;10.23;;;;;;;;;;5012228;28;20070;-63
2021/06/03 00:52:06;;;;;;;12.05;10.55;;;;;;;;;;5013056;28;20070;-62
2021/06/03 00:54:52;;;;;;;14.60;9.77;;;;;;;;;;5012067;28;20165;-62
2021/06/03 00:57:39;;;;;;;11.52;10.35;;;;;;;;;;5025521;28;20560;-63
2021/06/03 01:00:25;;;;;;;11.38;10.27;;;;;;;;;;5011341;28;20041;-62
2021/06/03 01:03:11;;;;;;;11.52;10.43;;;;;;;;;;5011848;28;20423;-62
2021/06/03 01:06:01;;;;;;;11.02;10.00;;;;;;;;;;5013029;28;20053;-63
2021/06/03 01:08:46;;;;;;;10.85;9.65;;;;;;;;;;5012926;28;20046;-63
2021/06/03 01:11:44;;;;;;;12.90;10.07;;;;;;;;;;5012714;28;20046;-62
2021/06/03 01:14:33;;;;;;;10.68;9.57;;;;;;;;;;5013045;28;20053;-63
2021/06/03 01:17:19;;;;;;;10.77;9.48;;;;;;;;;;5025577;28;20050;-63
2021/06/03 01:20:04;;;;;;;12.00;9.63;;;;;;;;;;5011625;28;20125;-63
2021/06/03 01:22:52;;;;;;;11.30;10.15;;;;;;;;;;5011444;28;20129;-63
2021/06/03 01:25:38;;;;;;;12.63;10.60;;;;;;;;;;5011626;28;20045;-62
2021/06/03 01:28:24;;;;;;;10.77;9.40;;;;;;;;;;5025259;28;20563;-62
2021/06/03 01:31:10;;;;;;;11.93;10.63;;;;;;;;;;5011351;28;20041;-63
2021/06/03 01:33:55;;;;;;;14.32;10.52;;;;;;;;;;5012397;28;20050;-62
2021/06/03 01:36:41;;;;;;;13.57;10.38;;;;;;;;;;5025187;28;20057;-62
2021/06/03 01:39:28;;;;;;;11.70;10.50;;;;;;;;;;5011279;28;20050;-63
2021/06/03 01:42:13;;;;;;;12.77;10.80;;;;;;;;;;5025467;28;20492;-63
2021/06/03 01:44:59;;;;;;;11.55;10.18;;;;;;;;;;5024879;28;20400;-63
2021/06/03 01:47:44;;;;;;;11.43;10.40;;;;;;;;;;5012480;28;20088;-64
2021/06/03 01:50:30;;;;;;;14.50;10.80;;;;;;;;;;5012141;28;20053;-62
2021/06/03 01:53:18;;;;;;;12.90;10.75;;;;;;;;;;5024596;28;20060;-62
2021/06/03 01:56:06;;;;;;;11.02;9.93;;;;;;;;;;5012402;28;20566;-63
2021/06/03 01:58:52;;;;;;;13.10;10.38;;;;;;;;;;5012311;28;20046;-63
2021/06/03 02:01:38;;;;;;;11.18;9.98;;;;;;;;;;5011747;28;20522;-63
2021/06/03 02:04:23;;;;;;;10.80;9.77;;;;;;;;;;5012376;28;20053;-62
2021/06/03 02:07:09;;;;;;;10.75;9.18;;;;;;;;;;5011175;28;20045;-62
2021/06/03 02:09:55;;;;;;;10.85;9.23;;;;;;;;;;5010897;28;20042;-62
2021/06/03 02:12:43;;;;;;;12.00;10.63;;;;;;;;;;5014557;28;20060;-62
2021/06/03 02:15:29;;;;;;;11.20;10.05;;;;;;;;;;5015276;28;20061;-62
2021/06/03 02:18:14;;;;;;;14.10;9.98;;;;;;;;;;5028770;28;20069;-62
2021/06/03 02:21:01;;;;;;;11.30;10.13;;;;;;;;;;5014917;28;20134;-63
2021/06/03 02:23:46;;;;;;;13.50;10.43;;;;;;;;;;5028616;28;20515;-63
2021/06/03 02:26:34;;;;;;;10.73;9.63;;;;;;;;;;5015800;28;20053;-62
2021/06/03 02:29:24;;;;;;;11.90;9.85;;;;;;;;;;5015587;28;20630;-62
2021/06/03 02:32:23;;;;;;;12.02;10.35;;;;;;;;;;5002634;28;20689;-62
2021/06/03 02:35:13;;;;;;;11.15;9.95;;;;;;;;;;5028564;28;20100;-62
2021/06/03 02:38:04;;;;;;;11.18;9.77;;;;;;;;;;5014857;28;20049;-62
2021/06/03 02:40:52;;;;;;;10.32;9.32;;;;;;;;;;5014349;28;20108;-63
2021/06/03 02:43:42;;;;;;;13.73;10.32;;;;;;;;;;5014402;28;20050;-63
2021/06/03 02:46:27;;;;;;;11.35;10.25;;;;;;;;;;5028381;28;20046;-63
2021/06/03 02:49:19;;;;;;;10.53;9.40;;;;;;;;;;5015319;28;20076;-63
2021/06/03 02:52:05;;;;;;;12.13;10.30;;;;;;;;;;5013841;28;20300;-63
2021/06/03 02:54:51;;;;;;;14.05;11.25;;;;;;;;;;5013239;28;20056;-64
2021/06/03 02:57:37;;;;;;;12.20;9.77;;;;;;;;;;5014249;28;20053;-63
2021/06/03 03:00:26;;;;;;;12.25;10.90;;;;;;;;;;5014828;28;20048;-63
2021/06/03 03:03:12;;;;;;;12.98;9.60;;;;;;;;;;5014953;28;20525;-63
2021/06/03 03:05:58;;;;;;;11.02;9.93;;;;;;;;;;5015336;28;20046;-63
2021/06/03 03:08:47;;;;;;;17.10;11.30;;;;;;;;;;5015166;28;20046;-63
2021/06/03 03:11:34;;;;;;;14.38;11.65;;;;;;;;;;5013852;28;20123;-63
2021/06/03 03:14:22;;;;;;;12.10;10.60;;;;;;;;;;5013891;28;20551;-63
2021/06/03 03:17:08;;;;;;;12.23;10.68;;;;;;;;;;5014972;28;20586;-63
2021/06/03 03:19:55;;;;;;;14.27;10.07;;;;;;;;;;5014672;28;20145;-63
2021/06/03 03:22:41;;;;;;;13.20;10.45;;;;;;;;;;5013352;28;20046;-63
2021/06/03 03:25:27;;;;;;;13.20;11.02;;;;;;;;;;5014696;28;20056;-63
2021/06/03 03:28:13;;;;;;;10.27;9.35;;;;;;;;;;5014686;28;20046;-63
2021/06/03 03:30:58;;;;;;;9.68;8.57;;;;;;;;;;5014305;28;20112;-63
2021/06/03 03:33:47;;;;;;;10.27;8.63;;;;;;;;;;5013795;28;20054;-63
2021/06/03 03:36:33;;;;;;;9.80;8.75;;;;;;;;;;5013737;28;20049;-63
2021/06/03 03:39:18;;;;;;;11.77;8.50;;;;;;;;;;5013586;28;20052;-63
2021/06/03 03:42:05;;;;;;;9.43;7.80;;;;;;;;;;5014297;28;20053;-63
2021/06/03 03:44:51;;;;;;;9.70;8.18;;;;;;;;;;5014535;28;20054;-63
2021/06/03 03:47:37;;;;;;;8.27;7.47;;;;;;;;;;5014340;28;20045;-63
2021/06/03 03:50:24;;;;;;;9.50;7.95;;;;;;;;;;5013941;28;20048;-63
2021/06/03 03:53:09;;;;;;;8.32;7.53;;;;;;;;;;5013142;28;20049;-63
2021/06/03 03:55:55;;;;;;;8.45;6.95;;;;;;;;;;5014162;28;20073;-63
2021/06/03 03:58:42;;;;;;;8.13;7.15;;;;;;;;;;5014051;28;20054;-63
2021/06/03 04:01:30;;;;;;;6.35;5.75;;;;;;;;;;5013816;28;20132;-63
2021/06/03 04:04:15;;;;;;;8.30;6.32;;;;;;;;;;5013972;28;20041;-62
2021/06/03 04:07:02;;;;;;;7.47;5.72;;;;;;;;;;5012884;28;20492;-62
2021/06/03 04:09:49;;;;;;;6.25;5.60;;;;;;;;;;5013694;28;20509;-62
2021/06/03 04:12:34;;;;;;;8.55;5.95;;;;;;;;;;5012889;28;20096;-63
2021/06/03 04:15:23;;;;;;;6.93;5.22;;;;;;;;;;5012484;28;20412;-63
2021/06/03 04:18:10;;;;;;;6.55;5.20;;;;;;;;;;5012894;28;20099;-63
2021/06/03 04:20:57;;;;;;;7.82;5.10;;;;;;;;;;5012432;28;20124;-62
2021/06/03 04:23:45;;;;;;;6.75;5.63;;;;;;;;;;5013788;28;20053;-62
2021/06/03 04:26:30;;;;;;;7.97;5.82;;;;;;;;;;5013721;28;20046;-62
2021/06/03 04:29:16;;;;;;;6.07;5.22;;;;;;;;;;5012432;28;20048;-63
2021/06/03 04:32:01;;;;;;;7.82;5.10;;;;;;;;;;5013434;28;20046;-62
2021/06/03 04:34:46;;;;;;;6.65;4.78;;;;;;;;;;5011911;28;20068;-62
2021/06/03 04:37:32;;;;;;;8.27;5.32;;;;;;;;;;5013467;28;20057;-63
2021/06/03 04:40:17;;;;;;;6.28;5.55;;;;;;;;;;5013063;28;20066;-62
2021/06/03 04:43:03;;;;;;;6.30;5.57;;;;;;;;;;5013258;28;20485;-62
2021/06/03 04:45:48;;;;;;;6.70;5.05;;;;;;;;;;5013352;28;20523;-62
2021/06/03 04:48:34;;;;;;;5.95;5.35;;;;;;;;;;5013123;28;20052;-62
2021/06/03 04:51:19;;;;;;;5.88;5.28;;;;;;;;;;5012965;28;20053;-63
2021/06/03 04:54:04;;;;;;;5.82;5.22;;;;;;;;;;5012093;28;20049;-62
2021/06/03 04:56:50;;;;;;;7.00;5.32;;;;;;;;;;5013217;28;20104;-62
2021/06/03 04:59:36;;;;;;;5.90;5.20;;;;;;;;;;5012726;28;20049;-62
2021/06/03 05:02:21;;;;;;;6.35;5.30;;;;;;;;;;5012833;28;20057;-62
2021/06/03 05:05:07;;;;;;;6.10;5.60;;;;;;;;;;5012834;28;20056;-62
2021/06/03 05:07:54;;;;;;;6.65;5.38;;;;;;;;;;5012739;28;20540;-63
2021/06/03 05:10:39;;;;;;;6.35;5.32;;;;;;;;;;5012673;28;20432;-63
2021/06/03 05:13:24;;;;;;;8.07;5.65;;;;;;;;;;5012616;28;20505;-63
2021/06/03 05:16:09;;;;;;;7.03;5.70;;;;;;;;;;5012734;28;20045;-63
2021/06/03 05:18:55;;;;;;;6.07;5.15;;;;;;;;;;5012662;28;20505;-64
2021/06/03 05:21:40;;;;;;;8.35;5.55;;;;;;;;;;5012678;28;20046;-64
2021/06/03 05:24:26;;;;;;;5.93;5.22;;;;;;;;;;5009385;28;20038;-64
2021/06/03 05:27:11;;;;;;;5.72;5.22;;;;;;;;;;5000832;28;20039;-64
2021/06/03 05:29:57;;;;;;;10.02;5.68;;;;;;;;;;4992727;28;20045;-64
2021/06/03 05:32:42;;;;;;;5.65;5.13;;;;;;;;;;4992060;28;20477;-63
2021/06/03 05:35:28;;;;;;;7.40;6.28;;;;;;;;;;4992964;28;20493;-63
2021/06/03 05:38:13;;;;;;;7.07;6.40;;;;;;;;;;4992867;28;20046;-62
2021/06/03 05:40:59;;;;;;;6.72;6.13;;;;;;;;;;4992993;28;20409;-63
2021/06/03 05:43:44;;;;;;;7.10;6.38;;;;;;;;;;4992640;28;20050;-63
2021/06/03 05:46:31;;;;;;;9.23;6.45;;;;;;;;;;4992674;28;20080;-62
2021/06/03 05:49:16;;;;;;;7.43;6.72;;;;;;;;;;4992639;28;20085;-63
2021/06/03 05:52:02;;;;;;;7.00;6.13;;;;;;;;;;4992706;28;20057;-63
2021/06/03 05:54:48;;;;;;;7.53;6.80;;;;;;;;;;4992659;28;20054;-62
2021/06/03 05:57:34;;;;;;;9.07;6.60;;;;;;;;;;4992748;28;20081;-63
2021/06/03 06:00:21;;;;;;;7.78;5.75;;;;;;;;;;5002545;28;20048;-63
2021/06/03 06:03:19;;;;;;;6.78;6.07;;;;;;;;;;5000772;28;20504;-63
2021/06/03 06:08:53;;;;;;;10.00;5.30;;;;;;;;;;5012185;28;20041;-64
2021/06/03 06:11:39;;;;;;;5.63;4.90;;;;;;;;;;5011851;28;20050;-63
2021/06/03 06:14:24;;;;;;;5.75;5.18;;;;;;;;;;5012324;28;20132;-63
2021/06/03 06:17:10;;;;;;;5.97;5.15;;;;;;;;;;5012151;28;20077;-63
2021/06/03 06:19:55;;;;;;;7.05;5.10;;;;;;;;;;5011818;28;20050;-64
2021/06/03 06:22:41;;;;;;;5.65;5.15;;;;;;;;;;5005125;28;20046;-62
2021/06/03 06:25:26;;;;;;;6.35;5.00;;;;;;;;;;4988333;28;20041;-64
2021/06/03 06:28:12;;;;;;;5.63;5.13;;;;;;;;;;5000146;28;20420;-64
2021/06/03 06:30:57;;;;;;;6.43;5.05;;;;;;;;;;5002695;28;20506;-64
2021/06/03 06:33:43;;;;;;;6.30;5.63;;;;;;;;;;4992279;28;20145;-63
2021/06/03 06:36:29;;;;;;;7.38;5.55;;;;;;;;;;4992304;28;20054;-63
2021/06/03 06:39:17;;;;;;;5.65;5.03;;;;;;;;;;4992478;28;20047;-64
2021/06/03 06:42:03;;;;;;;10.45;5.53;;;;;;;;;;4992072;28;20065;-63
2021/06/03 06:44:48;;;;;;;6.68;5.50;;;;;;;;;;4992208;28;20061;-63
2021/06/03 06:47:35;;;;;;;11.38;5.93;;;;;;;;;;4992157;28;20501;-63
2021/06/03 06:50:21;;;;;;;6.85;5.18;;;;;;;;;;4992145;28;20046;-63
2021/06/03 06:53:06;;;;;;;8.15;5.60;;;;;;;;;;4992277;28;20042;-63
2021/06/03 06:55:52;;;;;;;6.47;5.40;;;;;;;;;;4990972;28;20505;-63
2021/06/03 06:58:37;;;;;;;6.93;5.45;;;;;;;;;;4994410;28;20421;-63
2021/06/03 07:01:22;;;;;;;6.75;6.03;;;;;;;;;;4995235;28;20054;-63
2021/06/03 07:04:08;;;;;;;7.43;6.40;;;;;;;;;;4995590;28;20082;-63
2021/06/03 07:06:54;;;;;;;7.85;6.40;;;;;;;;;;4995657;28;20051;-63
2021/06/03 07:09:39;;;;;;;8.20;6.25;;;;;;;;;;4995011;28;20412;-63
2021/06/03 07:12:25;;;;;;;8.48;6.13;;;;;;;;;;4995242;28;20193;-62
2021/06/03 07:15:11;;;;;;;7.38;6.72;;;;;;;;;;4997802;28;20128;-63
2021/06/03 07:17:57;;;;;;;7.72;7.00;;;;;;;;;;4999120;28;20046;-63
2021/06/03 07:20:42;;;;;;;7.85;6.70;;;;;;;;;;5004165;28;20046;-63
2021/06/03 07:23:27;;;;;;;8.25;7.38;;;;;;;;;;5005362;28;20052;-63
2021/06/03 07:26:13;;;;;;;10.18;7.47;;;;;;;;;;5002061;28;20049;-62
2021/06/03 07:29:03;;;;;;;8.55;7.63;;;;;;;;;;5000796;28;20057;-63
2021/06/03 07:31:49;;;;;;;10.45;7.60;;;;;;;;;;5007770;28;20050;-63
2021/06/03 07:34:34;;;;;;;8.63;7.65;;;;;;;;;;4994232;28;20500;-63
2021/06/03 07:37:20;;;;;;;8.10;7.40;;;;;;;;;;4994700;28;20050;-63
2021/06/03 07:40:06;;;;;;;9.52;8.45;;;;;;;;;;4994715;28;20074;-63
2021/06/03 07:42:51;;;;;;;11.00;8.80;;;;;;;;;;4995302;28;20153;-63
2021/06/03 07:45:38;;;;;;;10.02;8.27;;;;;;;;;;4994758;28;20113;-63
2021/06/03 07:48:30;;;;;;;8.63;7.82;;;;;;;;;;4994938;28;20057;-63
2021/06/03 07:51:15;;;;;;;9.30;8.40;;;;;;;;;;4994438;28;20050;-63
2021/06/03 07:54:00;;;;;;;8.95;8.05;;;;;;;;;;4994587;28;20056;-63
2021/06/03 07:56:46;;;;;;;12.23;7.80;;;;;;;;;;4994705;28;20057;-64
2021/06/03 07:59:31;;;;;;;11.75;8.35;;;;;;;;;;4994342;28;20097;-63
2021/06/03 08:02:16;;;;;;;9.82;8.93;;;;;;;;;;4994242;28;20524;-63
2021/06/03 08:05:02;;;;;;;10.70;8.75;;;;;;;;;;4994613;28;20061;-63
2021/06/03 08:07:48;;;;;;;12.38;9.05;;;;;;;;;;4994533;28;20054;-63
2021/06/03 08:10:34;;;;;;;8.85;8.02;;;;;;;;;;4992905;28;20501;-64
2021/06/03 08:13:20;;;;;;;9.88;8.88;;;;;;;;;;4994169;28;20567;-63
2021/06/03 08:16:05;;;;;;;10.15;9.15;;;;;;;;;;4994234;28;20412;-63
2021/06/03 08:18:51;;;;;;;9.88;8.90;;;;;;;;;;4994179;28;20057;-63
2021/06/03 08:21:36;;;;;;;10.60;9.50;;;;;;;;;;4993923;28;20057;-63
2021/06/03 08:24:22;;;;;;;9.20;8.38;;;;;;;;;;4994077;28;20062;-63
2021/06/03 08:27:07;;;;;;;9.80;8.60;;;;;;;;;;4993702;28;20072;-63
2021/06/03 08:29:53;;;;;;;9.73;8.55;;;;;;;;;;4992707;28;20061;-63
2021/06/03 08:32:40;;;;;;;10.60;9.05;;;;;;;;;;4993652;28;20050;-63
2021/06/03 08:35:46;;;;;;;9.68;8.68;;;;;;;;;;4992533;28;20054;-63
2021/06/03 08:38:32;;;;;;;8.35;7.55;;;;;;;;;;4993143;28;20505;-63
2021/06/03 08:41:18;;;;;;;9.13;8.13;;;;;;;;;;4993129;28;20050;-63
2021/06/03 08:44:09;;;;;;;8.23;7.53;;;;;;;;;;4991438;28;20038;-65
2021/06/03 08:46:56;;;;;;;10.07;7.72;;;;;;;;;;4993969;28;20057;-65
2021/06/03 08:49:41;;;;;;;9.07;7.70;;;;;;;;;;4993235;28;20527;-65
2021/06/03 08:52:27;;;;;;;8.73;7.97;;;;;;;;;;4993254;28;20047;-65
2021/06/03 08:56:14;;;;;;;9.20;8.35;;;;;;;;;;4993426;28;20192;-65
2021/06/03 08:58:19;;;;;;;8.02;6.57;;;;;;;;;;4993159;28;20053;-65
2021/06/03 09:01:05;;;;;;;9.27;7.65;;;;;;;;;;4992899;28;20050;-65
2021/06/03 09:03:50;;;;;;;7.85;7.10;;;;;;;;;;4993052;28;20043;-65
2021/06/03 09:06:36;;;;;;;8.65;7.80;;;;;;;;;;4992933;28;20508;-65
2021/06/03 09:09:28;;;;;;;10.07;8.07;;;;;;;;;;4993040;28;20052;-65
2021/06/03 09:12:18;;;;;;;10.30;7.28;;;;;;;;;;4992986;28;20197;-65
2021/06/03 09:15:16;;;;;;;7.70;7.07;;;;;;;;;;4992887;28;20060;-65
2021/06/03 09:18:02;;;;;;;9.45;7.03;;;;;;;;;;4992905;28;20058;-65
2021/06/03 09:20:47;;;;;;;8.07;7.28;;;;;;;;;;4992244;28;20073;-65
2021/06/03 09:23:33;;;;;;;7.70;6.82;;;;;;;;;;4992633;28;20412;-65
2021/06/03 09:26:18;;;;;;;6.90;6.30;;;;;;;;;;4992910;28;20049;-65
2021/06/03 09:29:07;;;;;;;8.18;5.88;;;;;;;;;;4992970;28;20061;-65
2021/06/03 09:31:53;;;;;;;8.73;5.90;;;;;;;;;;4992370;28;20057;-65
2021/06/03 09:34:39;;;;;;;6.22;5.53;;;;;;;;;;4992865;28;20058;-65
2021/06/03 09:37:24;;;;;;;6.72;6.03;;;;;;;;;;4992530;28;20057;-65
2021/06/03 09:40:20;;;;;;;6.70;6.00;;;;;;;;;;4991520;28;20054;-65
2021/06/03 09:43:06;;;;;;;15.48;6.72;;;;;;;;;;4992491;28;20058;-64
2021/06/03 09:45:58;;;;;;;19.10;7.25;;;;;;;;;;4992573;28;20404;-64
2021/06/03 09:48:45;;;;;;;4.65;4.07;;;;;;;;;;4992452;28;20105;-66
2021/06/03 09:51:31;;;;;;;5.22;4.80;;;;;;;;;;4992212;28;20057;-66
2021/06/03 09:54:19;;;;;;;6.13;5.20;;;;;;;;;;4992506;28;20053;-66
2021/06/03 09:57:05;;;;;;;8.63;4.90;;;;;;;;;;4992277;28;20503;-66
2021/06/03 10:00:03;;;;;;;7.65;4.57;;;;;;;;;;4992288;28;20055;-64
2021/06/03 10:02:59;;;;;;;5.88;4.80;;;;;;;;;;4992223;28;20051;-64
2021/06/03 10:05:45;;;;;;;6.10;5.28;;;;;;;;;;4992289;28;20533;-66
2021/06/03 10:08:45;;;;;;;7.18;5.55;;;;;;;;;;4991530;28;20132;-66
2021/06/03 10:11:46;;;;;;;7.82;5.93;;;;;;;;;;4992006;28;20053;-65
2021/06/03 10:14:31;;;;;;;5.82;5.32;;;;;;;;;;4992523;28;20124;-65
2021/06/03 10:17:18;;;;;;;6.13;5.63;;;;;;;;;;5004384;28;20056;-66
2021/06/03 10:20:06;;;;;;;8.40;5.68;;;;;;;;;;4994504;28;20078;-65
2021/06/03 10:22:52;;;;;;;6.63;5.95;;;;;;;;;;4993285;28;20052;-65
2021/06/03 10:25:38;;;;;;;7.32;6.55;;;;;;;;;;4998123;28;20132;-66
2021/06/03 10:28:26;;;;;;;5.78;5.22;;;;;;;;;;4997250;28;20523;-66
2021/06/03 10:31:12;;;;;;;5.22;4.70;;;;;;;;;;4989380;28;20057;-66
2021/06/03 10:33:58;;;;;;;6.18;5.20;;;;;;;;;;4993371;28;20532;-66
2021/06/03 10:36:43;;;;;;;7.90;5.30;;;;;;;;;;5002541;28;20064;-66
2021/06/03 10:39:29;;;;;;;7.78;5.13;;;;;;;;;;5012216;28;20133;-65
2021/06/03 10:42:15;;;;;;;8.60;5.30;;;;;;;;;;5012044;28;20057;-65
2021/06/03 10:45:00;;;;;;;6.53;5.38;;;;;;;;;;5013461;28;20061;-65
2021/06/03 10:47:45;;;;;;;6.55;5.90;;;;;;;;;;5012633;28;20055;-65
2021/06/03 10:50:52;;;;;;;7.28;6.13;;;;;;;;;;4997853;28;20038;-65
2021/06/03 10:53:47;;;;;;;6.95;5.47;;;;;;;;;;4995751;28;20057;-65
2021/06/03 10:56:32;;;;;;;5.45;4.95;;;;;;;;;;4994578;28;20054;-66
2021/06/03 10:59:30;;;;;;;15.18;5.47;;;;;;;;;;4995431;28;20056;-65
2021/06/03 11:02:15;;;;;;;6.35;5.75;;;;;;;;;;4995500;28;20128;-66
2021/06/03 11:05:07;;;;;;;6.50;5.72;;;;;;;;;;4995266;28;20038;-65
2021/06/03 11:07:53;;;;;;;7.15;4.88;;;;;;;;;;4994322;28;20050;-64
2021/06/03 11:10:38;;;;;;;6.22;5.60;;;;;;;;;;4995099;28;20097;-64
2021/06/03 11:13:23;;;;;;;6.05;4.82;;;;;;;;;;4995149;28;20054;-65
2021/06/03 11:16:10;;;;;;;12.68;4.90;;;;;;;;;;4995035;28;20061;-65
2021/06/03 11:18:58;;;;;;;8.38;4.50;;;;;;;;;;4995246;28;20132;-64
2021/06/03 11:21:45;;;;;;;5.38;3.60;;;;;;;;;;4994273;28;20058;-64
2021/06/03 11:24:34;;;;;;;3.80;2.83;;;;;;;;;;4995058;28;20069;-64
2021/06/03 11:27:19;;;;;;;4.70;3.10;;;;;;;;;;4994889;28;20507;-65
2021/06/03 11:30:09;;;;;;;3.67;2.90;;;;;;;;;;4994718;28;20050;-64
2021/06/03 11:32:55;;;;;;;3.47;2.95;;;;;;;;;;4994658;28;20136;-65
2021/06/03 11:35:41;;;;;;;5.25;3.05;;;;;;;;;;4994755;28;20125;-64
2021/06/03 11:38:42;;;;;;;2.75;2.20;;;;;;;;;;4994842;28;20050;-65
2021/06/03 11:41:37;;;;;;;2.80;2.60;;;;;;;;;;4994555;28;20054;-64
2021/06/03 11:44:22;;;;;;;3.78;2.65;;;;;;;;;;4994362;28;20601;-64
2021/06/03 11:47:08;;;;;;;3.80;2.78;;;;;;;;;;4994553;28;20045;-65
2021/06/03 11:49:53;;;;;;;3.75;2.95;;;;;;;;;;4994469;28;20043;-64
2021/06/03 11:52:39;;;;;;;4.85;2.85;;;;;;;;;;4994512;28;20489;-65
2021/06/03 11:55:31;;;;;;;3.40;3.10;;;;;;;;;;4994466;28;20061;-65
2021/06/03 11:58:26;;;;;;;4.00;2.53;;;;;;;;;;4994409;28;20057;-65
2021/06/03 12:01:33;;;;;;;6.80;1.92;;;;;;;;;;4994073;28;20109;-65
2021/06/03 12:04:19;;;;;;;9.27;2.20;;;;;;;;;;4994136;28;20042;-64
2021/06/03 12:07:05;;;;;;;2.13;1.92;;;;;;;;;;4994241;28;20057;-65
2021/06/03 12:09:50;;;;;;;2.20;2.00;;;;;;;;;;4993923;28;20054;-65
2021/06/03 12:12:35;;;;;;;4.70;2.00;;;;;;;;;;4994054;28;20097;-65
2021/06/03 12:15:22;;;;;;;8.32;2.63;;;;;;;;;;4994136;28;20073;-65
2021/06/03 12:18:07;;;;;;;3.03;1.98;;;;;;;;;;4994080;28;20061;-65
2021/06/03 12:20:52;;;;;;;4.43;1.88;;;;;;;;;;4994012;28;20054;-65
2021/06/03 12:23:47;;;;;;;2.40;2.20;;;;;;;;;;4994175;28;20413;-65
2021/06/03 12:26:33;;;;;;;4.78;2.17;;;;;;;;;;4993875;28;20606;-65
2021/06/03 12:29:32;;;;;;;3.55;2.30;;;;;;;;;;4992728;28;20046;-65
2021/06/03 12:32:18;;;;;;;4.95;2.50;;;;;;;;;;4993660;28;20050;-65
2021/06/03 12:35:04;;;;;;;5.45;2.70;;;;;;;;;;4993660;28;20042;-65
2021/06/03 12:37:49;;;;;;;8.43;3.15;;;;;;;;;;4992964;28;20061;-65
2021/06/03 12:40:35;;;;;;;4.63;3.65;;;;;;;;;;4993506;28;20046;-65
2021/06/03 12:43:20;;;;;;;4.05;3.65;;;;;;;;;;4993506;28;20068;-64
2021/06/03 12:46:06;;;;;;;4.82;3.53;;;;;;;;;;4993735;28;20112;-64
2021/06/03 12:49:00;;;;;;;4.45;3.72;;;;;;;;;;4993811;28;20444;-65
2021/06/03 12:51:48;;;;;;;3.70;3.30;;;;;;;;;;5002552;28;20080;-65
2021/06/03 12:54:40;;;;;;;5.25;4.00;;;;;;;;;;5013353;28;20057;-64
2021/06/03 12:57:26;;;;;;;5.25;4.18;;;;;;;;;;5012710;28;20086;-65
2021/06/03 13:00:17;;;;;;;5.30;4.53;;;;;;;;;;5012840;28;20042;-65
2021/06/03 13:03:21;;;;;;;4.22;3.83;;;;;;;;;;5013025;28;20096;-65
2021/06/03 13:06:08;;;;;;;6.35;4.85;;;;;;;;;;5012948;28;20053;-65
2021/06/03 13:08:59;;;;;;;5.72;4.63;;;;;;;;;;5012677;28;20053;-65
2021/06/03 13:11:45;;;;;;;5.20;4.70;;;;;;;;;;5012430;28;20053;-65
2021/06/03 13:14:36;;;;;;;6.50;4.30;;;;;;;;;;5012811;28;20061;-64
2021/06/03 13:17:34;;;;;;;4.05;3.70;;;;;;;;;;5012788;28;20053;-64
2021/06/03 13:20:22;;;;;;;8.10;4.90;;;;;;;;;;5012282;28;20160;-64
2021/06/03 13:23:08;;;;;;;4.68;4.28;;;;;;;;;;5012503;28;20049;-64
2021/06/03 13:25:54;;;;;;;4.38;3.53;;;;;;;;;;5012380;28;20041;-64
2021/06/03 13:28:39;;;;;;;6.45;4.00;;;;;;;;;;5012531;28;20065;-64
2021/06/03 13:31:27;;;;;;;5.80;4.05;;;;;;;;;;5012172;28;20574;-65
2021/06/03 13:34:31;;;;;;;4.55;3.50;;;;;;;;;;5012417;28;20057;-64
2021/06/03 13:37:21;;;;;;;6.15;3.60;;;;;;;;;;5012503;28;20048;-64
2021/06/03 13:40:07;;;;;;;4.78;3.63;;;;;;;;;;5012225;28;20057;-64
2021/06/03 13:42:53;;;;;;;4.85;4.45;;;;;;;;;;5012567;28;20056;-64
2021/06/03 13:45:40;;;;;;;4.25;3.85;;;;;;;;;;5012349;28;20052;-66
2021/06/03 13:48:25;;;;;;;4.07;3.17;;;;;;;;;;5012236;28;20045;-64
2021/06/03 13:51:13;;;;;;;3.70;3.40;;;;;;;;;;5011959;28;20128;-64
2021/06/03 13:53:59;;;;;;;4.50;4.10;;;;;;;;;;5012113;28;20623;-64
2021/06/03 13:56:50;;;;;;;4.72;3.22;;;;;;;;;;5056060;23;20068;-62
2021/06/03 13:59:36;;;;;;;4.43;3.10;;;;;;;;;;5030794;28;20407;-63
2021/06/03 14:02:21;;;;;;;3.08;2.88;;;;;;;;;;5031772;28;20099;-62
2021/06/03 14:05:10;;;;;;;4.05;3.63;;;;;;;;;;5032024;28;20077;-62
2021/06/03 14:08:15;;;;;;;5.50;3.63;;;;;;;;;;5032865;28;20050;-63
2021/06/03 14:11:02;;;;;;;7.55;4.38;;;;;;;;;;5035688;28;20048;-62
2021/06/03 14:13:48;;;;;;;4.80;4.10;;;;;;;;;;5035867;28;20045;-62
2021/06/03 14:16:47;;;;;;;3.95;3.55;;;;;;;;;;5035505;28;20052;-62
2021/06/03 14:19:33;;;;;;;5.60;3.35;;;;;;;;;;5035674;28;20507;-62
2021/06/03 14:22:18;;;;;;;5.53;3.10;;;;;;;;;;5035575;28;20617;-62
2021/06/03 14:25:05;;;;;;;4.28;3.08;;;;;;;;;;5035537;28;20048;-62
2021/06/03 14:27:56;;;;;;;4.03;2.55;;;;;;;;;;5035373;28;20108;-62
2021/06/03 14:30:48;;;;;;;6.78;2.83;;;;;;;;;;5035269;28;20046;-62
2021/06/03 14:33:33;;;;;;;4.50;2.95;;;;;;;;;;5035079;28;20583;-64
2021/06/03 14:36:18;;;;;;;3.92;3.13;;;;;;;;;;5035303;28;20060;-61
2021/06/03 14:39:04;;;;;;;4.28;2.53;;;;;;;;;;5035396;28;20052;-62
2021/06/03 14:41:50;;;;;;;4.15;3.50;;;;;;;;;;5020278;28;20064;-62
2021/06/03 14:44:49;;;;;;;3.78;3.20;;;;;;;;;;5033977;28;20083;-62
2021/06/03 14:47:33;;;;;;;4.57;2.85;;;;;;;;;;5033996;28;20052;-62
2021/06/03 14:50:23;;;;;;;7.45;4.25;;;;;;;;;;5034885;28;20589;-62
2021/06/03 14:53:09;;;;;;;5.82;3.22;;;;;;;;;;5017196;28;20054;-62
2021/06/03 14:55:55;;;;;;;4.30;3.45;;;;;;;;;;5026575;28;20056;-63
2021/06/03 14:58:40;;;;;;;5.93;3.20;;;;;;;;;;5028444;28;20061;-63
2021/06/03 15:01:25;;;;;;;3.33;3.03;;;;;;;;;;5031929;28;20060;-62
2021/06/03 15:04:11;;;;;;;4.25;3.28;;;;;;;;;;5032636;28;20128;-62
2021/06/03 15:06:56;;;;;;;6.63;3.97;;;;;;;;;;5022700;28;20064;-62
2021/06/03 15:09:43;;;;;;;5.45;3.55;;;;;;;;;;5031918;28;20180;-62
2021/06/03 15:12:28;;;;;;;4.38;3.20;;;;;;;;;;5031353;28;20662;-62
2021/06/03 15:15:14;;;;;;;5.13;3.28;;;;;;;;;;5032663;28;20518;-62
2021/06/03 15:17:59;;;;;;;3.30;3.00;;;;;;;;;;5032341;28;20053;-62
2021/06/03 15:20:45;;;;;;;4.22;2.78;;;;;;;;;;5032914;28;20060;-62
2021/06/03 15:23:30;;;;;;;3.63;2.70;;;;;;;;;;5032131;28;20458;-62
2021/06/03 15:26:15;;;;;;;5.03;2.78;;;;;;;;;;5032544;28;20053;-62
2021/06/03 15:29:01;;;;;;;6.47;2.70;;;;;;;;;;5032707;28;20533;-61
2021/06/03 15:31:46;;;;;;;5.57;3.08;;;;;;;;;;5032524;28;20055;-61
2021/06/03 15:34:31;;;;;;;4.90;3.75;;;;;;;;;;5031564;28;20060;-62
2021/06/03 15:37:16;;;;;;;9.43;3.28;;;;;;;;;;5032338;28;20060;-62
2021/06/03 15:40:01;;;;;;;12.07;3.20;;;;;;;;;;5032060;28;20064;-61
2021/06/03 15:42:46;;;;;;;5.63;5.13;;;;;;;;;;5032117;28;20060;-62
2021/06/03 15:45:32;;;;;;;5.95;5.00;;;;;;;;;;5031116;28;20057;-62
2021/06/03 15:48:18;;;;;;;6.07;4.82;;;;;;;;;;5032192;28;20041;-62
2021/06/03 15:51:04;;;;;;;3.97;3.58;;;;;;;;;;5027166;28;20041;-62
2021/06/03 15:53:49;;;;;;;3.25;2.95;;;;;;;;;;5032438;28;20041;-62
2021/06/03 15:56:34;;;;;;;3.60;3.30;;;;;;;;;;5031448;28;20131;-62
2021/06/03 15:59:20;;;;;;;3.50;3.03;;;;;;;;;;5031200;28;20053;-61
2021/06/03 16:02:07;;;;;;;4.53;3.20;;;;;;;;;;5032273;28;20052;-62
2021/06/03 16:04:53;;;;;;;5.82;4.70;;;;;;;;;;5031946;28;20049;-62
2021/06/03 16:07:38;;;;;;;5.95;5.35;;;;;;;;;;5031345;28;20075;-62
2021/06/03 16:10:27;;;;;;;5.38;4.88;;;;;;;;;;5031148;28;20053;-62
2021/06/03 16:13:12;;;;;;;4.28;3.65;;;;;;;;;;5031824;28;20622;-62
2021/06/03 16:15:57;;;;;;;3.63;3.10;;;;;;;;;;5023603;28;20620;-62
2021/06/03 16:18:42;;;;;;;4.10;2.38;;;;;;;;;;5031447;28;20052;-62
2021/06/03 16:21:28;;;;;;;4.78;2.42;;;;;;;;;;5030789;28;20042;-62
2021/06/03 16:24:13;;;;;;;4.38;2.58;;;;;;;;;;5031004;28;20515;-62
2021/06/03 16:26:58;;;;;;;4.70;3.03;;;;;;;;;;5031305;28;20048;-62
2021/06/03 16:29:44;;;;;;;6.70;4.97;;;;;;;;;;5030106;28;20147;-62
2021/06/03 16:32:29;;;;;;;5.80;5.30;;;;;;;;;;5029793;28;20126;-62
2021/06/03 16:35:15;;;;;;;5.45;4.75;;;;;;;;;;5043696;28;20068;-62
2021/06/03 16:38:01;;;;;;;5.43;3.95;;;;;;;;;;5023250;28;20040;-62
2021/06/03 16:40:47;;;;;;;3.97;3.47;;;;;;;;;;5009493;28;20065;-62